Latest Weather Observations for Geelong Racecourse

IDV60901

Issued at 1:41 pm EST Tuesday 27 September 2016 (issued every 10 minutes, with the page automatically refreshed every 10 minutes)

About weather observations | Map of Melbourne area stations | Latest observations for Melbourne area | Other Formats
Station Details ID: 087184 Name: GEELONG RACECOURSE Lat: -38.17 Lon: 144.38 Height: 12.9 m
Data from the previous 72 hours. | See also: Recent months at Geelong Racecourse
Date/Time
EST
Temp
°C
App
Temp
°C
Dew
Point
°C
Rel
Hum
%
Delta-T
°C
Wind Press
QNH
hPa
Press
MSL
hPa
Rain since
9am
mm
Dir  Spd
km/h
Gust
km/h
Spd
kts
Gust
kts
27/01:30pm 12.9 9.9 11.8 93 0.6 W 19 28 10 15 1011.8 1011.8 1.2
27/01:00pm 13.4 9.9 12.1 92 0.7 W 22 35 12 19 1011.7 1011.7 1.2
27/12:30pm 11.8 7.9 10.9 94 0.5 W 22 32 12 17 1011.7 1011.7 1.2
27/12:00pm 13.0 9.8 11.9 93 0.6 WNW 20 32 11 17 1011.5 1011.5 0.4
27/11:30am 14.7 11.7 10.5 76 2.2 NW 17 24 9 13 1011.3 1011.3 0.0
27/11:00am 14.1 10.8 10.9 81 1.7 W 19 28 10 15 1011.5 1011.5 0.0
27/10:30am 12.6 10.1 11.2 91 0.7 W 15 24 8 13 1011.6 1011.6 0.0
27/10:00am 12.0 9.0 10.7 92 0.7 WNW 17 28 9 15 1011.6 1011.6 0.0
27/09:30am 10.9 7.7 9.8 93 0.6 WNW 17 28 9 15 1011.5 1011.5 0.0
27/09:00am 9.8 6.7 8.7 93 0.5 WNW 15 26 8 14 1011.3 1011.3 7.0
27/08:30am 8.9 5.2 7.8 93 0.5 WNW 17 32 9 17 1011.2 1011.2 7.0
27/08:00am 7.8 3.5 6.9 94 0.4 WNW 19 37 10 20 1011.0 1011.0 7.0
27/07:30am 7.4 2.8 6.3 93 0.5 WNW 20 39 11 21 1010.6 1010.6 7.0
27/07:00am 7.3 3.9 6.1 92 0.5 WNW 13 20 7 11 1010.5 1010.5 7.0
27/06:30am 6.1 2.9 5.1 93 0.4 WNW 11 15 6 8 1010.3 1010.3 7.0
27/06:00am 5.8 3.3 4.8 93 0.4 NW 7 13 4 7 1009.8 1009.8 7.0
27/05:30am 5.8 3.3 4.8 93 0.4 WNW 7 13 4 7 1009.6 1009.6 7.0
27/05:00am 5.7 3.2 4.7 93 0.4 W 7 11 4 6 1009.5 1009.5 7.0
27/04:30am 6.1 2.9 5.1 93 0.4 WNW 11 17 6 9 1009.4 1009.4 7.0
27/04:00am 6.5 3.0 5.5 93 0.4 WNW 13 20 7 11 1009.3 1009.3 7.0
27/03:30am 6.8 3.4 5.7 93 0.5 WNW 13 22 7 12 1009.1 1009.1 7.0
27/03:00am 7.0 3.6 5.9 93 0.5 WNW 13 24 7 13 1008.9 1008.9 7.0
27/02:30am 7.3 3.6 6.2 93 0.5 WNW 15 32 8 17 1009.1 1009.1 7.0
27/02:00am 7.6 3.2 6.5 93 0.5 NW 19 26 10 14 1009.0 1009.0 7.0
27/01:30am 8.1 4.9 7.0 93 0.5 WNW 13 20 7 11 1009.3 1009.3 7.0
27/01:00am 8.2 5.1 7.1 93 0.5 WNW 13 19 7 10 1009.5 1009.5 7.0
27/12:30am 8.3 4.8 7.1 92 0.6 WNW 15 20 8 11 1009.4 1009.4 7.0
27/12:00am 7.9 5.8 6.8 93 0.5 WNW 7 13 4 7 1009.5 1009.5 7.0
 
Date/Time
EST
Temp
°C
App
Temp
°C
Dew
Point
°C
Rel
Hum
%
Delta-T
°C
Wind Press
QNH
hPa
Press
MSL
hPa
Rain since
9am
mm
Dir  Spd
km/h
Gust
km/h
Spd
kts
Gust
kts
26/11:30pm 7.9 6.1 7.0 94 0.4 NW 6 9 3 5 1009.6 1009.6 7.0
26/11:00pm 8.0 6.2 7.1 94 0.4 WNW 6 9 3 5 1009.9 1009.9 7.0
26/10:30pm 8.1 5.7 7.2 94 0.4 NW 9 11 5 6 1010.1 1010.1 7.0
26/10:00pm 8.1 6.7 7.2 94 0.4 NW 4 6 2 3 1010.1 1010.1 7.0
26/09:30pm 8.1 6.3 7.2 94 0.4 NNW 6 9 3 5 1010.0 1010.0 7.0
26/09:00pm 8.2 6.2 7.3 94 0.4 NNW 7 13 4 7 1010.2 1010.2 7.0
26/08:30pm 8.2 5.4 7.1 93 0.5 WNW 11 17 6 9 1010.4 1010.4 6.4
26/08:00pm 8.3 4.8 7.4 94 0.4 W 15 26 8 14 1010.6 1010.6 6.2
26/07:30pm 8.4 3.3 7.5 94 0.4 W 24 35 13 19 1010.5 1010.5 4.0
26/07:19pm 9.1 4.1 8.0 93 0.5 WNW 24 44 13 24 1010.6 1010.6 2.6
26/07:00pm 11.6 9.0 9.3 86 1.2 NNW 13 19 7 10 1009.3 1009.3 0.2
26/06:30pm 11.8 8.5 7.9 77 1.9 NNW 15 24 8 13 1008.8 1008.8 0.0
26/06:00pm 12.9 8.3 6.3 64 3.1 NW 20 43 11 23 1008.6 1008.6 0.0
26/05:30pm 14.3 9.8 6.2 58 3.9 NNW 19 37 10 20 1008.4 1008.4 0.0
26/05:26pm 14.6 11.3 6.4 58 4.0 NNW 13 37 7 20 1008.3 1008.3 0.0
26/05:00pm 14.6 13.2 8.8 68 2.9 NNE 6 9 3 5 1008.1 1008.1 0.0
26/04:30pm 15.3 12.2 7.1 58 4.0 N 13 17 7 9 1007.8 1007.8 0.0
26/04:00pm 16.0 12.5 5.6 50 5.0 NNW 13 22 7 12 1007.9 1007.9 0.0
26/03:30pm 16.2 13.6 6.3 52 4.8 N 9 15 5 8 1008.1 1008.1 0.0
26/03:00pm 16.2 13.8 6.9 54 4.6 NNW 9 20 5 11 1008.5 1008.5 0.0
26/02:30pm 15.4 11.3 6.2 54 4.4 NW 17 26 9 14 1009.0 1009.0 0.0
26/02:00pm 15.9 12.4 7.4 57 4.2 NW 15 22 8 12 1009.2 1009.2 0.0
26/01:30pm 15.6 11.9 6.1 53 4.6 NW 15 26 8 14 1009.5 1009.5 0.0
26/01:00pm 16.7 12.4 7.1 53 4.8 NW 19 24 10 13 1009.9 1009.9 0.0
26/12:30pm 17.1 13.9 8.5 57 4.4 NW 15 26 8 14 1010.3 1010.3 0.0
26/12:00pm 16.3 12.2 6.4 52 4.8 NW 17 24 9 13 1010.9 1010.9 0.0
26/11:30am 15.1 11.5 6.9 58 4.0 NW 15 28 8 15 1011.3 1011.3 0.0
26/11:00am 14.7 12.1 6.0 56 4.2 NW 9 17 5 9 1011.6 1011.6 0.0
26/10:30am 14.1 11.3 6.9 62 3.5 NW 11 19 6 10 1012.0 1012.0 0.0
26/10:00am 14.5 12.1 8.7 68 2.9 NNW 11 19 6 10 1012.3 1012.3 0.0
26/09:30am 13.9 12.0 9.1 73 2.4 NW 9 15 5 8 1012.6 1012.6 0.0
26/09:00am 13.0 10.4 9.3 78 1.9 NW 13 19 7 10 1012.6 1012.6 0.4
26/08:30am 12.0 10.0 8.7 80 1.6 NW 9 13 5 7 1012.7 1012.7 0.4
26/08:00am 10.6 9.1 9.0 90 0.8 NW 7 9 4 5 1012.7 1012.7 0.4
26/07:30am 9.4 7.7 8.3 93 0.5 NW 7 11 4 6 1013.0 1013.0 0.4
26/07:00am 8.0 6.2 7.1 94 0.4 NNW 6 7 3 4 1012.9 1012.9 0.4
26/06:30am 6.9 4.8 6.0 94 0.4 NNW 6 7 3 4 1012.9 1012.9 0.4
26/06:00am 7.0 5.0 6.1 94 0.4 NW 6 7 3 4 1012.7 1012.7 0.4
26/05:30am 7.8 5.7 6.7 93 0.5 NW 7 9 4 5 1012.5 1012.5 0.4
26/05:00am 8.4 6.6 7.3 93 0.5 NNW 6 7 3 4 1012.4 1012.4 0.4
26/04:30am 8.9 8.4 8.0 94 0.4 CALM 0 4 0 2 1012.5 1012.5 0.4
26/04:00am 8.9 8.4 7.8 93 0.5 CALM 0 0 0 0 1012.5 1012.5 0.4
26/03:30am 9.0 8.5 7.9 93 0.5 CALM 0 0 0 0 1012.6 1012.6 0.4
26/03:00am 9.2 8.4 8.1 93 0.5 NNW 2 4 1 2 1012.7 1012.7 0.4
26/02:30am 8.8 7.2 7.9 94 0.4 WNW 6 6 3 3 1013.1 1013.1 0.4
26/02:00am 8.6 7.7 7.7 94 0.4 WNW 2 2 1 1 1013.2 1013.2 0.4
26/01:30am 8.5 7.2 7.6 94 0.4 WNW 4 4 2 2 1013.5 1013.5 0.4
26/01:00am 7.6 6.1 6.7 94 0.4 WNW 4 6 2 3 1013.7 1013.7 0.4
26/12:30am 8.2 6.4 7.1 93 0.5 W 6 7 3 4 1013.8 1013.8 0.4
26/12:00am 8.8 7.1 7.7 93 0.5 NNW 6 7 3 4 1013.7 1013.7 0.4
 
Date/Time
EST
Temp
°C
App
Temp
°C
Dew
Point
°C
Rel
Hum
%
Delta-T
°C
Wind Press
QNH
hPa
Press
MSL
hPa
Rain since
9am
mm
Dir  Spd
km/h
Gust
km/h
Spd
kts
Gust
kts
25/11:30pm 9.0 7.4 7.9 93 0.5 NW 6 6 3 3 1013.9 1013.9 0.4
25/11:00pm 9.5 8.4 8.4 93 0.5 NW 4 6 2 3 1014.0 1014.0 0.4
25/10:30pm 9.5 8.4 8.4 93 0.5 WNW 4 6 2 3 1014.3 1014.3 0.4
25/10:00pm 8.9 7.6 7.8 93 0.5 WSW 4 6 2 3 1014.5 1014.5 0.4
25/09:30pm 9.0 7.8 7.9 93 0.5 SSW 4 6 2 3 1014.4 1014.4 0.4
25/09:00pm 9.3 8.9 8.1 92 0.6 CALM 0 0 0 0 1014.2 1014.2 0.4
25/08:30pm 10.1 9.6 8.0 87 1.0 CALM 0 0 0 0 1014.1 1014.1 0.4
25/08:00pm 10.3 9.7 7.4 82 1.4 CALM 0 0 0 0 1014.1 1014.1 0.4
25/07:30pm 10.3 9.8 7.7 84 1.2 CALM 0 0 0 0 1013.7 1013.7 0.4
25/07:00pm 10.4 9.5 7.6 83 1.3 S 2 4 1 2 1013.3 1013.3 0.4
25/06:30pm 11.0 9.4 7.9 81 1.5 S 6 7 3 4 1012.8 1012.8 0.4
25/06:00pm 11.5 9.8 8.2 80 1.6 S 7 11 4 6 1012.5 1012.5 0.4
25/05:30pm 11.7 9.1 7.6 76 2.0 S 11 17 6 9 1012.1 1012.1 0.4
25/05:00pm 12.0 9.2 7.1 72 2.4 S 11 17 6 9 1012.0 1012.0 0.4
25/04:30pm 12.9 9.6 8.0 72 2.4 S 15 19 8 10 1011.8 1011.8 0.4
25/04:00pm 12.4 8.9 7.3 71 2.5 SSE 15 20 8 11 1011.6 1011.6 0.4
25/03:30pm 13.0 10.6 8.7 75 2.2 SSE 11 19 6 10 1011.5 1011.5 0.4
25/03:00pm 11.3 8.9 10.0 92 0.7 S 13 20 7 11 1011.7 1011.7 0.4
25/02:30pm 13.8 11.5 7.3 65 3.2 SSE 9 19 5 10 1011.5 1011.5 0.2
25/02:00pm 14.3 10.7 6.6 60 3.7 WSW 15 24 8 13 1011.5 1011.5 0.2
25/01:30pm 14.6 9.1 5.7 55 4.2 WSW 24 35 13 19 1011.5 1011.5 0.2
25/01:00pm 13.8 9.1 6.2 60 3.6 WSW 20 32 11 17 1011.6 1011.6 0.2
25/12:30pm 12.6 6.6 7.1 69 2.7 W 28 43 15 23 1011.9 1011.9 0.2
25/12:00pm 13.8 9.7 6.4 61 3.6 WSW 17 30 9 16 1011.6 1011.6 0.0
25/11:30am 14.0 9.7 7.8 66 3.1 WSW 20 33 11 18 1011.5 1011.5 0.0
25/11:00am 12.8 8.2 6.6 66 3.0 WSW 20 32 11 17 1011.5 1011.5 0.0
25/10:30am 12.7 7.4 7.0 68 2.7 W 24 37 13 20 1011.5 1011.5 0.0
25/10:00am 12.3 7.5 7.4 72 2.4 W 22 33 12 18 1011.4 1011.4 0.0
25/09:30am 11.9 7.8 8.0 77 1.9 W 19 30 10 16 1011.4 1011.4 0.0
25/09:00am 11.3 7.0 8.0 80 1.6 W 20 32 11 17 1011.1 1011.1 6.8
25/08:30am 10.6 8.4 9.2 91 0.7 W 11 20 6 11 1010.8 1010.8 6.8
25/08:00am 9.4 6.5 8.2 92 0.6 WNW 13 22 7 12 1010.5 1010.5 6.8
25/07:30am 8.5 4.7 7.4 93 0.5 WNW 17 30 9 16 1010.1 1010.1 6.8
25/07:00am 7.9 5.1 6.8 93 0.5 WNW 11 20 6 11 1009.9 1009.9 6.8
25/06:30am 7.4 4.9 6.5 94 0.4 WNW 9 15 5 8 1009.7 1009.7 6.8
25/06:00am 7.7 4.5 6.8 94 0.4 WNW 13 19 7 10 1009.2 1009.2 6.8
25/05:30am 8.2 4.7 7.3 94 0.4 WNW 15 24 8 13 1008.8 1008.8 6.8
25/05:00am 8.6 5.2 7.7 94 0.4 WNW 15 26 8 14 1008.4 1008.4 6.8
25/04:30am 9.0 6.5 8.1 94 0.4 WNW 11 17 6 9 1008.2 1008.2 6.8
25/04:00am 9.6 6.8 8.7 94 0.4 WNW 13 20 7 11 1008.1 1008.1 6.8
25/03:30am 9.9 7.6 9.1 95 0.4 WNW 11 17 6 9 1007.7 1007.7 6.8
25/03:00am 8.9 7.1 8.1 95 0.4 WSW 7 11 4 6 1007.3 1007.3 6.8
25/02:30am 9.3 7.8 8.4 94 0.4 W 6 7 3 4 1007.2 1007.2 6.8
25/02:00am 9.8 8.2 8.9 94 0.4 W 7 13 4 7 1007.3 1007.3 6.8
25/01:30am 9.9 8.4 9.0 94 0.4 WSW 7 9 4 5 1007.2 1007.2 6.8
25/01:00am 10.9 9.6 10.0 94 0.5 W 7 11 4 6 1007.0 1007.0 6.8
25/12:30am 11.0 9.7 10.1 94 0.5 WSW 7 11 4 6 1006.6 1006.6 6.8
25/12:00am 11.9 9.0 11.0 94 0.5 W 17 24 9 13 1006.3 1006.3 6.8
 
Date/Time
EST
Temp
°C
App
Temp
°C
Dew
Point
°C
Rel
Hum
%
Delta-T
°C
Wind Press
QNH
hPa
Press
MSL
hPa
Rain since
9am
mm
Dir  Spd
km/h
Gust
km/h
Spd
kts
Gust
kts
24/11:30pm 12.1 10.0 11.2 94 0.5 NNW 13 19 7 10 1006.2 1006.2 6.8
24/11:00pm 12.2 11.3 11.4 95 0.4 NNE 7 11 4 6 1006.2 1006.2 6.8
24/10:30pm 12.1 11.4 11.3 95 0.4 NNE 6 9 3 5 1006.2 1006.2 6.6
24/10:00pm 12.3 11.6 11.5 95 0.4 NNW 6 7 3 4 1006.6 1006.6 6.2
24/09:30pm 12.4 11.2 11.6 95 0.4 N 9 13 5 7 1006.7 1006.7 4.8
24/09:00pm 12.6 11.4 11.7 94 0.5 N 9 15 5 8 1006.5 1006.5 3.2
24/08:30pm 12.7 10.8 11.8 94 0.5 N 13 20 7 11 1006.3 1006.3 2.6
24/08:00pm 12.9 11.4 11.8 93 0.6 N 11 15 6 8 1006.3 1006.3 1.6
24/07:30pm 13.5 12.1 12.2 92 0.7 NNW 11 15 6 8 1006.0 1006.0 0.8
24/07:00pm 14.2 12.8 12.1 87 1.1 N 11 19 6 10 1005.6 1005.6 0.4
24/06:30pm 14.5 12.6 11.7 83 1.5 N 13 20 7 11 1005.6 1005.6 0.4
24/06:00pm 14.7 12.5 10.9 78 2.0 N 13 22 7 12 1005.4 1005.4 0.2
24/05:30pm 16.0 12.9 9.0 63 3.6 N 15 28 8 15 1005.2 1005.2 0.0
24/05:00pm 16.8 14.1 8.8 59 4.1 N 13 22 7 12 1004.9 1004.9 0.0
24/04:30pm 17.1 13.5 8.5 57 4.4 N 17 24 9 13 1004.6 1004.6 0.0
24/04:00pm 17.6 13.5 7.9 53 4.9 N 19 28 10 15 1004.7 1004.7 0.0
24/03:30pm 17.9 13.7 8.2 53 5.0 NNW 20 30 11 16 1004.8 1004.8 0.0
24/03:00pm 18.3 14.0 7.7 50 5.4 N 20 30 11 16 1005.1 1005.1 0.0
24/02:30pm 18.6 14.5 7.7 49 5.6 N 19 26 10 14 1004.9 1004.9 0.0
24/02:00pm 19.1 15.0 7.8 48 5.8 N 19 33 10 18 1004.8 1004.8 0.0

Latest Capital City Observations: Canberra | Sydney | Melbourne | Brisbane | Adelaide | Perth | Hobart | Darwin

Other Formats:

Comma delimited format used in spreadsheet applications
http://www.bom.gov.au/fwo/IDV60901/IDV60901.94857.axf

JavaScript Object Notation format (JSON) in row-major order
http://www.bom.gov.au/fwo/IDV60901/IDV60901.94857.json